sensor_id;sensor_type;location;lat;lon;timestamp;temperature;humidity
21019;DHT22;10667;51.056;3.732;2024-03-25T00:02:00;7.50;99.90
21019;DHT22;10667;51.056;3.732;2024-03-25T00:04:25;7.50;99.90
21019;DHT22;10667;51.056;3.732;2024-03-25T00:06:51;7.40;99.90
21019;DHT22;10667;51.056;3.732;2024-03-25T00:09:18;7.50;99.90
21019;DHT22;10667;51.056;3.732;2024-03-25T00:11:44;7.40;99.90
21019;DHT22;10667;51.056;3.732;2024-03-25T00:14:09;7.40;99.90
21019;DHT22;10667;51.056;3.732;2024-03-25T00:16:35;7.40;99.90
21019;DHT22;10667;51.056;3.732;2024-03-25T00:19:02;7.40;99.90
21019;DHT22;10667;51.056;3.732;2024-03-25T00:21:28;7.40;99.90
21019;DHT22;10667;51.056;3.732;2024-03-25T00:23:54;7.40;99.90
21019;DHT22;10667;51.056;3.732;2024-03-25T00:26:23;7.40;99.90
21019;DHT22;10667;51.056;3.732;2024-03-25T00:28:48;7.40;99.90
21019;DHT22;10667;51.056;3.732;2024-03-25T00:31:14;7.40;99.90
21019;DHT22;10667;51.056;3.732;2024-03-25T00:33:40;7.30;99.90
21019;DHT22;10667;51.056;3.732;2024-03-25T00:36:05;7.30;99.90
21019;DHT22;10667;51.056;3.732;2024-03-25T00:38:31;7.30;99.90
21019;DHT22;10667;51.056;3.732;2024-03-25T00:40:57;7.30;99.90
21019;DHT22;10667;51.056;3.732;2024-03-25T00:43:23;7.30;99.90
21019;DHT22;10667;51.056;3.732;2024-03-25T00:45:48;7.30;99.90
21019;DHT22;10667;51.056;3.732;2024-03-25T00:48:14;7.30;99.90
21019;DHT22;10667;51.056;3.732;2024-03-25T00:50:40;7.30;99.90
21019;DHT22;10667;51.056;3.732;2024-03-25T00:53:05;7.30;99.90
21019;DHT22;10667;51.056;3.732;2024-03-25T00:55:33;7.40;99.90
21019;DHT22;10667;51.056;3.732;2024-03-25T00:58:03;7.40;99.90
21019;DHT22;10667;51.056;3.732;2024-03-25T01:00:29;7.30;99.90
21019;DHT22;10667;51.056;3.732;2024-03-25T01:02:55;7.30;99.90
21019;DHT22;10667;51.056;3.732;2024-03-25T01:05:20;7.30;99.90
21019;DHT22;10667;51.056;3.732;2024-03-25T01:07:46;7.30;99.90
21019;DHT22;10667;51.056;3.732;2024-03-25T01:10:12;7.40;99.90
21019;DHT22;10667;51.056;3.732;2024-03-25T01:12:37;7.40;99.90
21019;DHT22;10667;51.056;3.732;2024-03-25T01:15:03;7.40;99.90
21019;DHT22;10667;51.056;3.732;2024-03-25T01:17:30;7.30;99.90
21019;DHT22;10667;51.056;3.732;2024-03-25T01:19:56;7.30;99.90
21019;DHT22;10667;51.056;3.732;2024-03-25T01:22:21;7.30;99.90
21019;DHT22;10667;51.056;3.732;2024-03-25T01:24:47;7.30;99.90
21019;DHT22;10667;51.056;3.732;2024-03-25T01:27:13;7.30;99.90
21019;DHT22;10667;51.056;3.732;2024-03-25T01:29:38;7.20;99.90
21019;DHT22;10667;51.056;3.732;2024-03-25T01:32:04;7.20;99.90
21019;DHT22;10667;51.056;3.732;2024-03-25T01:34:31;7.20;99.90
21019;DHT22;10667;51.056;3.732;2024-03-25T01:36:56;7.20;99.90
21019;DHT22;10667;51.056;3.732;2024-03-25T01:39:22;7.10;99.90
21019;DHT22;10667;51.056;3.732;2024-03-25T01:41:50;7.20;99.90
21019;DHT22;10667;51.056;3.732;2024-03-25T01:44:16;7.10;99.90
21019;DHT22;10667;51.056;3.732;2024-03-25T01:46:41;7.10;99.90
21019;DHT22;10667;51.056;3.732;2024-03-25T01:49:08;7.10;99.90
21019;DHT22;10667;51.056;3.732;2024-03-25T01:51:35;7.10;99.90
21019;DHT22;10667;51.056;3.732;2024-03-25T01:54:03;7.10;99.90
21019;DHT22;10667;51.056;3.732;2024-03-25T01:56:31;7.00;99.90
21019;DHT22;10667;51.056;3.732;2024-03-25T01:58:59;7.10;99.90
21019;DHT22;10667;51.056;3.732;2024-03-25T02:01:25;7.00;99.90
21019;DHT22;10667;51.056;3.732;2024-03-25T02:03:50;7.00;99.90
21019;DHT22;10667;51.056;3.732;2024-03-25T02:06:17;7.00;99.90
21019;DHT22;10667;51.056;3.732;2024-03-25T02:08:44;7.00;99.90
21019;DHT22;10667;51.056;3.732;2024-03-25T02:11:10;7.00;99.90
21019;DHT22;10667;51.056;3.732;2024-03-25T02:13:38;7.00;99.90
21019;DHT22;10667;51.056;3.732;2024-03-25T02:16:04;7.00;99.90
21019;DHT22;10667;51.056;3.732;2024-03-25T02:18:30;7.00;99.90
21019;DHT22;10667;51.056;3.732;2024-03-25T02:20:57;7.00;99.90
21019;DHT22;10667;51.056;3.732;2024-03-25T02:23:23;7.00;99.90
21019;DHT22;10667;51.056;3.732;2024-03-25T02:25:52;7.00;99.90
21019;DHT22;10667;51.056;3.732;2024-03-25T02:28:18;6.90;99.90
21019;DHT22;10667;51.056;3.732;2024-03-25T02:30:44;6.90;99.90
21019;DHT22;10667;51.056;3.732;2024-03-25T02:33:10;7.00;99.90
21019;DHT22;10667;51.056;3.732;2024-03-25T02:35:36;7.00;99.90
21019;DHT22;10667;51.056;3.732;2024-03-25T02:38:03;7.00;99.90
21019;DHT22;10667;51.056;3.732;2024-03-25T02:40:29;6.90;99.90
21019;DHT22;10667;51.056;3.732;2024-03-25T02:42:55;6.90;99.90
21019;DHT22;10667;51.056;3.732;2024-03-25T02:45:21;6.90;99.90
21019;DHT22;10667;51.056;3.732;2024-03-25T02:47:47;6.90;99.90
21019;DHT22;10667;51.056;3.732;2024-03-25T02:50:12;6.90;99.90
21019;DHT22;10667;51.056;3.732;2024-03-25T02:52:38;6.90;99.90
21019;DHT22;10667;51.056;3.732;2024-03-25T02:55:04;6.90;99.90
21019;DHT22;10667;51.056;3.732;2024-03-25T02:57:30;6.90;99.90
21019;DHT22;10667;51.056;3.732;2024-03-25T02:59:55;6.80;99.90
21019;DHT22;10667;51.056;3.732;2024-03-25T03:02:21;6.90;99.90
21019;DHT22;10667;51.056;3.732;2024-03-25T03:04:46;6.90;99.90
21019;DHT22;10667;51.056;3.732;2024-03-25T03:07:12;6.90;99.90
21019;DHT22;10667;51.056;3.732;2024-03-25T03:09:38;6.90;99.90
21019;DHT22;10667;51.056;3.732;2024-03-25T03:12:04;6.90;99.90
21019;DHT22;10667;51.056;3.732;2024-03-25T03:14:29;7.00;99.90
21019;DHT22;10667;51.056;3.732;2024-03-25T03:16:55;6.90;99.90
21019;DHT22;10667;51.056;3.732;2024-03-25T03:19:27;6.90;99.90
21019;DHT22;10667;51.056;3.732;2024-03-25T03:21:53;6.90;99.90
21019;DHT22;10667;51.056;3.732;2024-03-25T03:24:19;6.90;99.90
21019;DHT22;10667;51.056;3.732;2024-03-25T03:26:44;6.90;99.90
21019;DHT22;10667;51.056;3.732;2024-03-25T03:29:10;6.90;99.90
21019;DHT22;10667;51.056;3.732;2024-03-25T03:31:36;6.90;99.90
21019;DHT22;10667;51.056;3.732;2024-03-25T03:34:02;6.80;99.90
21019;DHT22;10667;51.056;3.732;2024-03-25T03:36:28;6.80;99.90
21019;DHT22;10667;51.056;3.732;2024-03-25T03:38:53;6.80;99.90
21019;DHT22;10667;51.056;3.732;2024-03-25T03:41:19;6.80;99.90
21019;DHT22;10667;51.056;3.732;2024-03-25T03:43:45;6.90;99.90
21019;DHT22;10667;51.056;3.732;2024-03-25T03:46:11;6.90;99.90
21019;DHT22;10667;51.056;3.732;2024-03-25T03:48:36;6.80;99.90
21019;DHT22;10667;51.056;3.732;2024-03-25T03:51:04;6.80;99.90
21019;DHT22;10667;51.056;3.732;2024-03-25T03:53:30;6.80;99.90
21019;DHT22;10667;51.056;3.732;2024-03-25T03:56:05;6.80;99.90
21019;DHT22;10667;51.056;3.732;2024-03-25T03:58:31;6.80;99.90
21019;DHT22;10667;51.056;3.732;2024-03-25T04:00:56;6.80;99.90
21019;DHT22;10667;51.056;3.732;2024-03-25T04:03:22;6.90;99.90
21019;DHT22;10667;51.056;3.732;2024-03-25T04:05:48;6.90;99.90
21019;DHT22;10667;51.056;3.732;2024-03-25T04:08:13;6.80;99.90
21019;DHT22;10667;51.056;3.732;2024-03-25T04:10:39;6.80;99.90
21019;DHT22;10667;51.056;3.732;2024-03-25T04:13:06;6.70;99.90
21019;DHT22;10667;51.056;3.732;2024-03-25T04:15:34;6.70;99.90
21019;DHT22;10667;51.056;3.732;2024-03-25T04:18:00;6.60;99.90
21019;DHT22;10667;51.056;3.732;2024-03-25T04:20:29;6.70;99.90
21019;DHT22;10667;51.056;3.732;2024-03-25T04:22:55;6.70;99.90
21019;DHT22;10667;51.056;3.732;2024-03-25T04:25:21;6.70;99.90
21019;DHT22;10667;51.056;3.732;2024-03-25T04:27:47;6.70;99.90
21019;DHT22;10667;51.056;3.732;2024-03-25T04:30:13;6.70;99.90
21019;DHT22;10667;51.056;3.732;2024-03-25T04:32:40;6.70;99.90
21019;DHT22;10667;51.056;3.732;2024-03-25T04:35:06;6.70;99.90
21019;DHT22;10667;51.056;3.732;2024-03-25T04:37:33;6.80;99.90
21019;DHT22;10667;51.056;3.732;2024-03-25T04:39:59;6.80;99.90
21019;DHT22;10667;51.056;3.732;2024-03-25T04:42:25;6.70;99.90
21019;DHT22;10667;51.056;3.732;2024-03-25T04:44:50;6.80;99.90
21019;DHT22;10667;51.056;3.732;2024-03-25T04:47:17;6.80;99.90
21019;DHT22;10667;51.056;3.732;2024-03-25T04:49:43;6.80;99.90
21019;DHT22;10667;51.056;3.732;2024-03-25T04:52:09;6.80;99.90
21019;DHT22;10667;51.056;3.732;2024-03-25T04:54:34;6.80;99.90
21019;DHT22;10667;51.056;3.732;2024-03-25T04:57:00;6.80;99.90
21019;DHT22;10667;51.056;3.732;2024-03-25T04:59:25;6.80;99.90
21019;DHT22;10667;51.056;3.732;2024-03-25T05:01:51;6.80;99.90
21019;DHT22;10667;51.056;3.732;2024-03-25T05:04:20;6.80;99.90
21019;DHT22;10667;51.056;3.732;2024-03-25T05:06:46;6.70;99.90
21019;DHT22;10667;51.056;3.732;2024-03-25T05:09:11;6.80;99.90
21019;DHT22;10667;51.056;3.732;2024-03-25T05:11:37;6.70;99.90
21019;DHT22;10667;51.056;3.732;2024-03-25T05:14:02;6.60;99.90
21019;DHT22;10667;51.056;3.732;2024-03-25T05:16:28;6.60;99.90
21019;DHT22;10667;51.056;3.732;2024-03-25T05:18:54;6.60;99.90
21019;DHT22;10667;51.056;3.732;2024-03-25T05:21:19;6.50;99.90
21019;DHT22;10667;51.056;3.732;2024-03-25T05:23:45;6.50;99.90
21019;DHT22;10667;51.056;3.732;2024-03-25T05:26:10;6.60;99.90
21019;DHT22;10667;51.056;3.732;2024-03-25T05:28:36;6.60;99.90
21019;DHT22;10667;51.056;3.732;2024-03-25T05:31:08;6.60;99.90
21019;DHT22;10667;51.056;3.732;2024-03-25T05:33:34;6.60;99.90
21019;DHT22;10667;51.056;3.732;2024-03-25T05:36:00;6.50;99.90
21019;DHT22;10667;51.056;3.732;2024-03-25T05:38:27;6.50;99.90
21019;DHT22;10667;51.056;3.732;2024-03-25T05:40:52;6.60;99.90
21019;DHT22;10667;51.056;3.732;2024-03-25T05:43:18;6.60;99.90
21019;DHT22;10667;51.056;3.732;2024-03-25T05:45:54;6.60;99.90
21019;DHT22;10667;51.056;3.732;2024-03-25T05:48:21;6.70;99.90
21019;DHT22;10667;51.056;3.732;2024-03-25T05:50:56;6.60;99.90
21019;DHT22;10667;51.056;3.732;2024-03-25T05:53:21;6.70;99.90
21019;DHT22;10667;51.056;3.732;2024-03-25T05:55:48;6.70;99.90
21019;DHT22;10667;51.056;3.732;2024-03-25T05:58:13;6.70;99.90
21019;DHT22;10667;51.056;3.732;2024-03-25T06:00:39;6.80;99.90
21019;DHT22;10667;51.056;3.732;2024-03-25T06:03:05;6.90;99.90
21019;DHT22;10667;51.056;3.732;2024-03-25T06:05:30;7.00;99.90
21019;DHT22;10667;51.056;3.732;2024-03-25T06:07:56;7.00;99.90
21019;DHT22;10667;51.056;3.732;2024-03-25T06:10:21;7.00;99.90
21019;DHT22;10667;51.056;3.732;2024-03-25T06:12:47;7.10;99.90
21019;DHT22;10667;51.056;3.732;2024-03-25T06:15:13;7.10;99.90
21019;DHT22;10667;51.056;3.732;2024-03-25T06:17:39;7.20;99.90
21019;DHT22;10667;51.056;3.732;2024-03-25T06:20:05;7.20;99.90
21019;DHT22;10667;51.056;3.732;2024-03-25T06:22:30;7.20;99.90
21019;DHT22;10667;51.056;3.732;2024-03-25T06:24:56;7.20;99.90
21019;DHT22;10667;51.056;3.732;2024-03-25T06:27:21;7.20;99.90
21019;DHT22;10667;51.056;3.732;2024-03-25T06:29:47;7.30;99.90
21019;DHT22;10667;51.056;3.732;2024-03-25T06:32:13;7.30;99.90
21019;DHT22;10667;51.056;3.732;2024-03-25T06:34:57;7.30;99.90
21019;DHT22;10667;51.056;3.732;2024-03-25T06:37:26;7.30;99.90
21019;DHT22;10667;51.056;3.732;2024-03-25T06:39:51;7.30;99.90
21019;DHT22;10667;51.056;3.732;2024-03-25T06:42:18;7.30;99.90
21019;DHT22;10667;51.056;3.732;2024-03-25T06:44:44;7.30;99.90
21019;DHT22;10667;51.056;3.732;2024-03-25T06:47:14;7.30;99.90
21019;DHT22;10667;51.056;3.732;2024-03-25T06:49:40;7.30;99.90
21019;DHT22;10667;51.056;3.732;2024-03-25T06:52:06;7.40;99.90
21019;DHT22;10667;51.056;3.732;2024-03-25T06:54:31;7.50;99.90
21019;DHT22;10667;51.056;3.732;2024-03-25T06:56:57;7.60;99.90
21019;DHT22;10667;51.056;3.732;2024-03-25T06:59:23;7.80;99.90
21019;DHT22;10667;51.056;3.732;2024-03-25T07:01:49;7.80;99.90
21019;DHT22;10667;51.056;3.732;2024-03-25T07:04:15;7.90;99.90
21019;DHT22;10667;51.056;3.732;2024-03-25T07:06:40;7.90;99.90
21019;DHT22;10667;51.056;3.732;2024-03-25T07:09:06;7.90;99.90
21019;DHT22;10667;51.056;3.732;2024-03-25T07:11:31;8.00;99.90
21019;DHT22;10667;51.056;3.732;2024-03-25T07:13:57;8.10;99.90
21019;DHT22;10667;51.056;3.732;2024-03-25T07:16:23;8.10;99.90
21019;DHT22;10667;51.056;3.732;2024-03-25T07:18:48;8.10;99.90
21019;DHT22;10667;51.056;3.732;2024-03-25T07:21:14;8.10;99.90
21019;DHT22;10667;51.056;3.732;2024-03-25T07:23:40;8.10;99.90
21019;DHT22;10667;51.056;3.732;2024-03-25T07:26:05;7.90;99.90
21019;DHT22;10667;51.056;3.732;2024-03-25T07:28:31;8.00;99.90
21019;DHT22;10667;51.056;3.732;2024-03-25T07:30:57;7.90;99.90
21019;DHT22;10667;51.056;3.732;2024-03-25T07:33:22;7.90;99.90
21019;DHT22;10667;51.056;3.732;2024-03-25T07:35:48;7.80;99.90
21019;DHT22;10667;51.056;3.732;2024-03-25T07:38:13;7.90;99.90
21019;DHT22;10667;51.056;3.732;2024-03-25T07:40:39;7.80;99.90
21019;DHT22;10667;51.056;3.732;2024-03-25T07:43:04;7.80;99.90
21019;DHT22;10667;51.056;3.732;2024-03-25T07:45:31;7.90;99.90
21019;DHT22;10667;51.056;3.732;2024-03-25T07:47:56;8.10;99.90
21019;DHT22;10667;51.056;3.732;2024-03-25T07:50:22;8.20;99.90
21019;DHT22;10667;51.056;3.732;2024-03-25T07:52:47;8.30;99.90
21019;DHT22;10667;51.056;3.732;2024-03-25T07:55:13;8.40;99.90
21019;DHT22;10667;51.056;3.732;2024-03-25T07:57:40;8.50;99.90
21019;DHT22;10667;51.056;3.732;2024-03-25T08:00:06;8.60;99.90
21019;DHT22;10667;51.056;3.732;2024-03-25T08:02:34;8.70;99.90
21019;DHT22;10667;51.056;3.732;2024-03-25T08:05:00;8.70;99.90
21019;DHT22;10667;51.056;3.732;2024-03-25T08:07:25;8.80;99.90
21019;DHT22;10667;51.056;3.732;2024-03-25T08:09:51;8.90;99.90
21019;DHT22;10667;51.056;3.732;2024-03-25T08:12:16;8.90;99.90
21019;DHT22;10667;51.056;3.732;2024-03-25T08:14:42;9.00;99.90
21019;DHT22;10667;51.056;3.732;2024-03-25T08:17:09;9.10;99.90
21019;DHT22;10667;51.056;3.732;2024-03-25T08:19:34;9.20;99.90
21019;DHT22;10667;51.056;3.732;2024-03-25T08:22:00;9.40;99.90
21019;DHT22;10667;51.056;3.732;2024-03-25T08:24:25;9.50;99.90
21019;DHT22;10667;51.056;3.732;2024-03-25T08:26:51;9.60;99.90
21019;DHT22;10667;51.056;3.732;2024-03-25T08:29:16;9.60;99.90
21019;DHT22;10667;51.056;3.732;2024-03-25T08:31:43;9.50;99.90
21019;DHT22;10667;51.056;3.732;2024-03-25T08:34:08;9.50;99.90
21019;DHT22;10667;51.056;3.732;2024-03-25T08:36:34;9.50;99.90
21019;DHT22;10667;51.056;3.732;2024-03-25T08:38:59;9.70;99.90
21019;DHT22;10667;51.056;3.732;2024-03-25T08:41:25;9.80;99.90
21019;DHT22;10667;51.056;3.732;2024-03-25T08:43:50;9.80;99.90
21019;DHT22;10667;51.056;3.732;2024-03-25T08:46:16;9.60;99.90
21019;DHT22;10667;51.056;3.732;2024-03-25T08:48:42;9.60;99.90
21019;DHT22;10667;51.056;3.732;2024-03-25T08:51:07;9.70;99.90
21019;DHT22;10667;51.056;3.732;2024-03-25T08:53:33;9.60;99.90
21019;DHT22;10667;51.056;3.732;2024-03-25T08:55:59;9.50;99.90
21019;DHT22;10667;51.056;3.732;2024-03-25T08:58:25;9.50;99.90
21019;DHT22;10667;51.056;3.732;2024-03-25T09:00:50;9.50;99.90
21019;DHT22;10667;51.056;3.732;2024-03-25T09:03:16;9.60;99.90
21019;DHT22;10667;51.056;3.732;2024-03-25T09:05:42;9.60;99.90
21019;DHT22;10667;51.056;3.732;2024-03-25T09:08:07;9.70;99.90
21019;DHT22;10667;51.056;3.732;2024-03-25T09:10:36;9.80;99.90
21019;DHT22;10667;51.056;3.732;2024-03-25T09:13:20;9.80;99.90
21019;DHT22;10667;51.056;3.732;2024-03-25T09:15:46;9.70;99.90
21019;DHT22;10667;51.056;3.732;2024-03-25T09:18:11;9.70;99.90
21019;DHT22;10667;51.056;3.732;2024-03-25T09:20:37;9.90;99.90
21019;DHT22;10667;51.056;3.732;2024-03-25T09:23:03;10.00;99.90
21019;DHT22;10667;51.056;3.732;2024-03-25T09:25:28;10.00;99.90
21019;DHT22;10667;51.056;3.732;2024-03-25T09:27:54;10.10;99.90
21019;DHT22;10667;51.056;3.732;2024-03-25T09:30:20;10.30;99.90
21019;DHT22;10667;51.056;3.732;2024-03-25T09:32:45;10.30;99.90
21019;DHT22;10667;51.056;3.732;2024-03-25T09:35:11;10.20;99.90
21019;DHT22;10667;51.056;3.732;2024-03-25T09:37:37;10.30;99.90
21019;DHT22;10667;51.056;3.732;2024-03-25T09:40:04;10.20;99.90
21019;DHT22;10667;51.056;3.732;2024-03-25T09:42:42;10.20;99.90
21019;DHT22;10667;51.056;3.732;2024-03-25T09:45:08;10.30;99.90
21019;DHT22;10667;51.056;3.732;2024-03-25T09:47:35;10.20;99.90
21019;DHT22;10667;51.056;3.732;2024-03-25T09:50:03;10.30;99.90
21019;DHT22;10667;51.056;3.732;2024-03-25T09:52:30;10.40;99.90
21019;DHT22;10667;51.056;3.732;2024-03-25T09:54:55;10.50;99.90
21019;DHT22;10667;51.056;3.732;2024-03-25T09:57:21;10.50;99.90
21019;DHT22;10667;51.056;3.732;2024-03-25T09:59:47;10.60;99.90
21019;DHT22;10667;51.056;3.732;2024-03-25T10:02:13;10.70;99.90
21019;DHT22;10667;51.056;3.732;2024-03-25T10:04:44;10.80;99.90
21019;DHT22;10667;51.056;3.732;2024-03-25T10:07:10;10.70;99.90
21019;DHT22;10667;51.056;3.732;2024-03-25T10:09:36;10.80;99.90
21019;DHT22;10667;51.056;3.732;2024-03-25T10:12:02;11.00;99.90
21019;DHT22;10667;51.056;3.732;2024-03-25T10:14:27;11.00;99.90
21019;DHT22;10667;51.056;3.732;2024-03-25T10:16:53;11.10;99.90
21019;DHT22;10667;51.056;3.732;2024-03-25T10:19:18;11.10;99.90
21019;DHT22;10667;51.056;3.732;2024-03-25T10:21:44;11.40;99.90
21019;DHT22;10667;51.056;3.732;2024-03-25T10:24:10;11.20;99.90
21019;DHT22;10667;51.056;3.732;2024-03-25T10:26:36;11.30;99.90
21019;DHT22;10667;51.056;3.732;2024-03-25T10:29:06;11.20;99.90
21019;DHT22;10667;51.056;3.732;2024-03-25T10:31:33;11.40;99.90
21019;DHT22;10667;51.056;3.732;2024-03-25T10:34:00;11.20;99.90
21019;DHT22;10667;51.056;3.732;2024-03-25T10:36:25;11.40;99.90
21019;DHT22;10667;51.056;3.732;2024-03-25T10:39:01;11.40;99.90
21019;DHT22;10667;51.056;3.732;2024-03-25T10:41:34;11.40;99.90
21019;DHT22;10667;51.056;3.732;2024-03-25T10:44:03;11.40;99.90
21019;DHT22;10667;51.056;3.732;2024-03-25T10:46:32;11.30;99.90
21019;DHT22;10667;51.056;3.732;2024-03-25T10:49:32;11.30;99.90
21019;DHT22;10667;51.056;3.732;2024-03-25T10:51:59;11.40;99.90
21019;DHT22;10667;51.056;3.732;2024-03-25T10:54:26;11.60;99.90
21019;DHT22;10667;51.056;3.732;2024-03-25T10:56:55;11.90;99.90
21019;DHT22;10667;51.056;3.732;2024-03-25T10:59:23;12.00;99.90
21019;DHT22;10667;51.056;3.732;2024-03-25T11:01:49;12.10;99.90
21019;DHT22;10667;51.056;3.732;2024-03-25T11:04:15;12.10;99.90
21019;DHT22;10667;51.056;3.732;2024-03-25T11:06:41;12.10;99.90
21019;DHT22;10667;51.056;3.732;2024-03-25T11:09:07;11.90;99.90
21019;DHT22;10667;51.056;3.732;2024-03-25T11:11:35;11.90;99.90
21019;DHT22;10667;51.056;3.732;2024-03-25T11:14:04;11.80;99.90
21019;DHT22;10667;51.056;3.732;2024-03-25T11:16:40;11.80;99.90
21019;DHT22;10667;51.056;3.732;2024-03-25T11:19:06;11.80;99.90
21019;DHT22;10667;51.056;3.732;2024-03-25T11:21:32;11.90;99.90
21019;DHT22;10667;51.056;3.732;2024-03-25T11:24:06;11.90;99.90
21019;DHT22;10667;51.056;3.732;2024-03-25T11:26:32;11.90;99.90
21019;DHT22;10667;51.056;3.732;2024-03-25T11:29:00;12.00;99.90
21019;DHT22;10667;51.056;3.732;2024-03-25T11:31:27;12.20;99.90
21019;DHT22;10667;51.056;3.732;2024-03-25T11:33:53;12.40;99.90
21019;DHT22;10667;51.056;3.732;2024-03-25T11:36:19;12.30;99.90
21019;DHT22;10667;51.056;3.732;2024-03-25T11:39:01;12.20;99.90
21019;DHT22;10667;51.056;3.732;2024-03-25T11:41:31;12.30;99.90
21019;DHT22;10667;51.056;3.732;2024-03-25T11:43:57;12.40;99.90
21019;DHT22;10667;51.056;3.732;2024-03-25T11:46:26;12.50;99.90
21019;DHT22;10667;51.056;3.732;2024-03-25T11:48:53;12.40;99.90
21019;DHT22;10667;51.056;3.732;2024-03-25T11:51:19;12.40;99.90
21019;DHT22;10667;51.056;3.732;2024-03-25T11:53:45;12.40;99.90
21019;DHT22;10667;51.056;3.732;2024-03-25T11:56:14;12.40;99.90
21019;DHT22;10667;51.056;3.732;2024-03-25T11:58:40;12.40;99.90
21019;DHT22;10667;51.056;3.732;2024-03-25T12:01:05;12.30;99.90
21019;DHT22;10667;51.056;3.732;2024-03-25T12:03:33;12.60;99.90
21019;DHT22;10667;51.056;3.732;2024-03-25T12:05:59;12.60;99.90
21019;DHT22;10667;51.056;3.732;2024-03-25T12:08:24;12.60;99.90
21019;DHT22;10667;51.056;3.732;2024-03-25T12:10:52;12.80;99.90
21019;DHT22;10667;51.056;3.732;2024-03-25T12:13:38;13.00;99.90
21019;DHT22;10667;51.056;3.732;2024-03-25T12:16:06;13.10;99.90
21019;DHT22;10667;51.056;3.732;2024-03-25T12:18:36;13.10;99.90
21019;DHT22;10667;51.056;3.732;2024-03-25T12:21:04;13.00;99.90
21019;DHT22;10667;51.056;3.732;2024-03-25T12:23:31;12.90;99.90
21019;DHT22;10667;51.056;3.732;2024-03-25T12:26:02;13.00;99.90
21019;DHT22;10667;51.056;3.732;2024-03-25T12:28:30;13.10;99.90
21019;DHT22;10667;51.056;3.732;2024-03-25T12:30:56;13.10;99.90
21019;DHT22;10667;51.056;3.732;2024-03-25T12:33:25;13.00;99.90
21019;DHT22;10667;51.056;3.732;2024-03-25T12:35:52;12.90;99.90
21019;DHT22;10667;51.056;3.732;2024-03-25T12:40:47;13.00;99.90
21019;DHT22;10667;51.056;3.732;2024-03-25T12:43:16;13.10;99.90
21019;DHT22;10667;51.056;3.732;2024-03-25T12:45:42;13.20;99.90
21019;DHT22;10667;51.056;3.732;2024-03-25T12:48:08;13.20;99.90
21019;DHT22;10667;51.056;3.732;2024-03-25T12:50:34;13.30;99.90
21019;DHT22;10667;51.056;3.732;2024-03-25T12:53:00;13.40;99.90
21019;DHT22;10667;51.056;3.732;2024-03-25T12:55:26;13.50;99.90
21019;DHT22;10667;51.056;3.732;2024-03-25T12:57:52;13.70;99.90
21019;DHT22;10667;51.056;3.732;2024-03-25T13:00:18;13.80;99.90
21019;DHT22;10667;51.056;3.732;2024-03-25T13:02:43;13.90;99.90
21019;DHT22;10667;51.056;3.732;2024-03-25T13:05:09;13.70;99.90
21019;DHT22;10667;51.056;3.732;2024-03-25T13:07:35;13.50;99.90
21019;DHT22;10667;51.056;3.732;2024-03-25T13:10:00;13.30;99.90
21019;DHT22;10667;51.056;3.732;2024-03-25T13:12:26;13.20;99.90
21019;DHT22;10667;51.056;3.732;2024-03-25T13:14:51;13.20;99.90
21019;DHT22;10667;51.056;3.732;2024-03-25T13:17:17;13.20;99.90
21019;DHT22;10667;51.056;3.732;2024-03-25T13:19:43;13.20;99.90
21019;DHT22;10667;51.056;3.732;2024-03-25T13:22:08;13.20;99.90
21019;DHT22;10667;51.056;3.732;2024-03-25T13:24:34;13.10;99.90
21019;DHT22;10667;51.056;3.732;2024-03-25T13:26:59;13.30;99.90
21019;DHT22;10667;51.056;3.732;2024-03-25T13:29:25;13.30;99.90
21019;DHT22;10667;51.056;3.732;2024-03-25T13:31:50;13.20;99.90
21019;DHT22;10667;51.056;3.732;2024-03-25T13:34:17;13.20;99.90
21019;DHT22;10667;51.056;3.732;2024-03-25T13:36:42;13.40;99.90
21019;DHT22;10667;51.056;3.732;2024-03-25T13:39:08;13.60;99.90
21019;DHT22;10667;51.056;3.732;2024-03-25T13:41:34;13.70;99.90
21019;DHT22;10667;51.056;3.732;2024-03-25T13:43:59;13.70;99.90
21019;DHT22;10667;51.056;3.732;2024-03-25T13:46:25;13.70;99.90
21019;DHT22;10667;51.056;3.732;2024-03-25T13:48:51;13.80;99.90
21019;DHT22;10667;51.056;3.732;2024-03-25T13:51:17;14.10;99.90
21019;DHT22;10667;51.056;3.732;2024-03-25T13:53:43;14.40;99.90
21019;DHT22;10667;51.056;3.732;2024-03-25T13:56:08;14.50;99.90
21019;DHT22;10667;51.056;3.732;2024-03-25T13:58:34;14.50;99.90
21019;DHT22;10667;51.056;3.732;2024-03-25T14:00:59;14.70;99.90
21019;DHT22;10667;51.056;3.732;2024-03-25T14:03:26;14.60;99.90
21019;DHT22;10667;51.056;3.732;2024-03-25T14:05:52;14.70;99.90
21019;DHT22;10667;51.056;3.732;2024-03-25T14:08:18;14.80;99.90
21019;DHT22;10667;51.056;3.732;2024-03-25T14:10:44;14.60;99.90
21019;DHT22;10667;51.056;3.732;2024-03-25T14:13:09;14.80;99.90
21019;DHT22;10667;51.056;3.732;2024-03-25T14:15:35;14.80;99.90
21019;DHT22;10667;51.056;3.732;2024-03-25T14:18:01;14.60;99.90
21019;DHT22;10667;51.056;3.732;2024-03-25T14:20:26;14.60;99.90
21019;DHT22;10667;51.056;3.732;2024-03-25T14:22:52;14.60;99.90
21019;DHT22;10667;51.056;3.732;2024-03-25T14:25:18;14.70;99.90
21019;DHT22;10667;51.056;3.732;2024-03-25T14:27:45;14.70;99.90
21019;DHT22;10667;51.056;3.732;2024-03-25T14:30:11;14.70;99.70
21019;DHT22;10667;51.056;3.732;2024-03-25T14:32:37;14.80;99.90
21019;DHT22;10667;51.056;3.732;2024-03-25T14:35:05;14.90;99.90
21019;DHT22;10667;51.056;3.732;2024-03-25T14:37:32;14.90;99.90
21019;DHT22;10667;51.056;3.732;2024-03-25T14:39:58;14.80;97.90
21019;DHT22;10667;51.056;3.732;2024-03-25T14:42:24;14.60;98.30
21019;DHT22;10667;51.056;3.732;2024-03-25T14:44:50;14.60;97.90
21019;DHT22;10667;51.056;3.732;2024-03-25T14:47:16;14.60;97.60
21019;DHT22;10667;51.056;3.732;2024-03-25T14:49:41;14.50;98.20
21019;DHT22;10667;51.056;3.732;2024-03-25T14:52:07;14.20;98.00
21019;DHT22;10667;51.056;3.732;2024-03-25T14:54:33;14.20;98.90
21019;DHT22;10667;51.056;3.732;2024-03-25T14:57:00;14.10;98.40
21019;DHT22;10667;51.056;3.732;2024-03-25T14:59:27;14.00;98.40
21019;DHT22;10667;51.056;3.732;2024-03-25T15:01:52;14.10;98.70
21019;DHT22;10667;51.056;3.732;2024-03-25T15:04:18;14.00;98.70
21019;DHT22;10667;51.056;3.732;2024-03-25T15:06:43;14.10;98.60
21019;DHT22;10667;51.056;3.732;2024-03-25T15:09:09;14.20;99.20
21019;DHT22;10667;51.056;3.732;2024-03-25T15:11:35;14.30;99.00
21019;DHT22;10667;51.056;3.732;2024-03-25T15:14:00;14.30;98.60
21019;DHT22;10667;51.056;3.732;2024-03-25T15:16:27;14.20;98.10
21019;DHT22;10667;51.056;3.732;2024-03-25T15:18:53;14.20;99.60
21019;DHT22;10667;51.056;3.732;2024-03-25T15:21:19;14.20;98.30
21019;DHT22;10667;51.056;3.732;2024-03-25T15:23:44;14.30;98.60
21019;DHT22;10667;51.056;3.732;2024-03-25T15:26:10;14.40;99.50
21019;DHT22;10667;51.056;3.732;2024-03-25T15:28:36;14.40;98.40
21019;DHT22;10667;51.056;3.732;2024-03-25T15:31:01;14.50;98.90
21019;DHT22;10667;51.056;3.732;2024-03-25T15:33:27;14.50;97.90
21019;DHT22;10667;51.056;3.732;2024-03-25T15:35:52;14.40;98.40
21019;DHT22;10667;51.056;3.732;2024-03-25T15:38:18;14.50;98.10